createdAt,value
2024-01-25T00:00:54.162Z,3.67
2024-01-25T00:03:21.995Z,3.65
2024-01-25T00:05:50.098Z,4.82
2024-01-25T00:08:18.552Z,4.20
2024-01-25T00:10:46.228Z,3.83
2024-01-25T00:13:15.249Z,4.45
2024-01-25T00:15:42.975Z,4.10
2024-01-25T00:18:10.696Z,4.07
2024-01-25T00:20:38.352Z,3.40
2024-01-25T00:23:06.296Z,4.15
2024-01-25T00:25:33.966Z,4.30
2024-01-25T00:28:01.921Z,4.32
2024-01-25T00:30:31.182Z,5.03
2024-01-25T00:32:59.241Z,4.72
2024-01-25T00:35:27.953Z,4.47
2024-01-25T00:37:56.266Z,3.95
2024-01-25T00:40:24.557Z,3.92
2024-01-25T00:42:54.858Z,4.03
2024-01-25T00:45:24.154Z,4.47
2024-01-25T00:47:53.989Z,4.32
2024-01-25T00:50:25.189Z,3.40
2024-01-25T00:52:53.711Z,3.67
2024-01-25T00:55:22.149Z,4.20
2024-01-25T00:57:50.339Z,4.47
2024-01-25T01:00:19.430Z,3.85
2024-01-25T01:02:47.718Z,3.38
2024-01-25T01:05:17.851Z,4.00
2024-01-25T01:07:46.471Z,3.63
2024-01-25T01:10:15.328Z,4.55
2024-01-25T01:12:43.264Z,3.22
2024-01-25T01:15:11.381Z,4.68
2024-01-25T01:17:39.127Z,3.65
2024-01-25T01:20:08.095Z,4.13
2024-01-25T01:22:37.340Z,4.00
2024-01-25T01:25:05.626Z,5.10
2024-01-25T01:27:33.268Z,4.10
2024-01-25T01:30:00.937Z,5.13
2024-01-25T01:32:28.634Z,3.83
2024-01-25T01:34:56.607Z,4.40
2024-01-25T01:37:24.723Z,3.58
2024-01-25T01:39:56.628Z,3.63
2024-01-25T01:44:53.757Z,4.95
2024-01-25T01:47:21.657Z,4.53
2024-01-25T01:49:49.718Z,3.47
2024-01-25T01:52:19.147Z,3.70
2024-01-25T01:54:48.667Z,4.60
2024-01-25T01:57:17.742Z,4.07
2024-01-25T01:59:45.761Z,4.07
2024-01-25T02:02:13.558Z,3.70
2024-01-25T02:04:41.480Z,3.63
2024-01-25T02:07:09.805Z,3.60
2024-01-25T02:09:37.642Z,3.60
2024-01-25T02:12:06.067Z,3.65
2024-01-25T02:14:35.054Z,3.40
2024-01-25T02:17:02.812Z,3.58
2024-01-25T02:19:30.515Z,4.10
2024-01-25T02:22:00.210Z,3.80
2024-01-25T02:24:29.479Z,3.67
2024-01-25T02:26:57.210Z,3.67
2024-01-25T02:29:25.066Z,3.40
2024-01-25T02:31:52.739Z,3.50
2024-01-25T02:34:20.532Z,4.47
2024-01-25T02:36:48.156Z,4.22
2024-01-25T02:39:15.939Z,3.75
2024-01-25T02:41:45.663Z,3.92
2024-01-25T02:44:13.763Z,3.90
2024-01-25T02:46:41.322Z,4.18
2024-01-25T02:49:09.092Z,3.83
2024-01-25T02:51:36.999Z,3.20
2024-01-25T02:54:04.753Z,3.72
2024-01-25T02:56:35.780Z,3.83
2024-01-25T02:59:04.812Z,4.10
2024-01-25T03:01:40.035Z,3.28
2024-01-25T03:04:07.925Z,3.70
2024-01-25T03:06:35.881Z,3.72
2024-01-25T03:09:05.572Z,3.72
2024-01-25T03:11:33.335Z,3.08
2024-01-25T03:14:01.077Z,4.22
2024-01-25T03:16:30.146Z,3.85
2024-01-25T03:18:57.943Z,3.55
2024-01-25T03:21:25.685Z,4.35
2024-01-25T03:23:53.788Z,3.95
2024-01-25T03:26:21.383Z,3.70
2024-01-25T03:28:49.026Z,4.00
2024-01-25T03:31:16.798Z,4.43
2024-01-25T03:33:45.999Z,3.67
2024-01-25T03:36:16.124Z,3.33
2024-01-25T03:38:44.380Z,3.42
2024-01-25T03:41:12.033Z,3.25
2024-01-25T03:43:44.192Z,3.40
2024-01-25T03:46:12.991Z,4.05
2024-01-25T03:48:40.876Z,4.10
2024-01-25T03:51:09.935Z,4.15
2024-01-25T03:53:37.780Z,5.30
2024-01-25T03:56:06.159Z,3.53
2024-01-25T03:58:33.837Z,4.18
2024-01-25T04:01:01.657Z,4.28
2024-01-25T04:03:29.546Z,4.18
2024-01-25T04:05:57.269Z,4.13
2024-01-25T04:08:26.269Z,3.85
2024-01-25T04:10:53.854Z,4.93
2024-01-25T04:13:21.600Z,4.45
2024-01-25T04:15:49.475Z,3.47
2024-01-25T04:18:17.283Z,3.58
2024-01-25T04:20:46.418Z,3.55
2024-01-25T04:23:14.066Z,3.65
2024-01-25T04:25:43.204Z,3.38
2024-01-25T04:28:10.981Z,3.67
2024-01-25T04:30:38.742Z,4.03
2024-01-25T04:33:07.167Z,3.70
2024-01-25T04:35:35.636Z,3.53
2024-01-25T04:38:03.451Z,3.20
2024-01-25T04:40:31.133Z,4.45
2024-01-25T04:43:00.965Z,3.78
2024-01-25T04:45:28.638Z,4.00
2024-01-25T04:47:56.348Z,4.20
2024-01-25T04:50:24.194Z,4.93
2024-01-25T04:52:51.934Z,3.75
2024-01-25T04:55:21.209Z,5.30
2024-01-25T04:57:52.382Z,3.20
2024-01-25T05:00:23.660Z,4.72
2024-01-25T05:02:51.359Z,4.30
2024-01-25T05:05:19.100Z,3.45
2024-01-25T05:07:47.503Z,3.28
2024-01-25T05:10:15.288Z,3.17
2024-01-25T05:12:43.024Z,3.72
2024-01-25T05:15:11.075Z,3.53
2024-01-25T05:17:39.970Z,3.90
2024-01-25T05:20:09.039Z,3.53
2024-01-25T05:22:41.241Z,3.90
2024-01-25T05:25:10.885Z,3.83
2024-01-25T05:27:38.602Z,4.30
2024-01-25T05:30:07.667Z,3.25
2024-01-25T05:32:35.364Z,2.95
2024-01-25T05:35:04.907Z,3.72
2024-01-25T05:37:32.756Z,4.28
2024-01-25T05:40:00.460Z,3.55
2024-01-25T05:42:28.109Z,3.65
2024-01-25T05:44:55.769Z,3.20
2024-01-25T05:47:23.529Z,3.00
2024-01-25T05:49:51.554Z,3.65
2024-01-25T05:52:22.064Z,3.65
2024-01-25T05:54:50.183Z,3.80
2024-01-25T05:57:18.322Z,3.97
2024-01-25T05:59:45.934Z,6.10
2024-01-25T06:02:13.762Z,4.15
2024-01-25T06:04:41.604Z,3.65
2024-01-25T06:07:09.819Z,4.78
2024-01-25T06:09:38.933Z,3.80
2024-01-25T06:12:07.525Z,4.95
2024-01-25T06:14:35.179Z,4.15
2024-01-25T06:17:02.824Z,3.72
2024-01-25T06:19:30.542Z,4.80
2024-01-25T06:21:58.333Z,3.90
2024-01-25T06:24:25.959Z,3.92
2024-01-25T06:26:55.761Z,4.65
2024-01-25T06:29:23.411Z,5.30
2024-01-25T06:31:51.094Z,4.43
2024-01-25T06:34:18.846Z,3.75
2024-01-25T06:36:46.689Z,3.38
2024-01-25T06:39:14.479Z,5.43
2024-01-25T06:41:42.931Z,4.10
2024-01-25T06:44:12.006Z,4.07
2024-01-25T06:46:39.697Z,3.97
2024-01-25T06:49:08.266Z,3.83
2024-01-25T06:51:35.918Z,3.72
2024-01-25T06:54:03.572Z,4.10
2024-01-25T06:56:31.302Z,3.38
2024-01-25T06:58:59.350Z,4.00
2024-01-25T07:01:29.291Z,3.70
2024-01-25T07:03:57.711Z,3.95
2024-01-25T07:06:27.316Z,3.47
2024-01-25T07:08:55.456Z,3.80
2024-01-25T07:11:23.190Z,3.33
2024-01-25T07:13:50.833Z,4.18
2024-01-25T07:16:20.346Z,3.42
2024-01-25T07:18:49.546Z,4.82
2024-01-25T07:21:17.325Z,4.38
2024-01-25T07:23:44.937Z,3.55
2024-01-25T07:26:18.733Z,3.88
2024-01-25T07:28:47.204Z,4.22
2024-01-25T07:31:14.938Z,4.10
2024-01-25T07:33:42.838Z,4.63
2024-01-25T07:36:11.839Z,4.75
2024-01-25T07:38:39.580Z,4.03
2024-01-25T07:41:07.195Z,3.80
2024-01-25T07:43:34.897Z,3.95
2024-01-25T07:46:02.979Z,3.75
2024-01-25T07:48:30.711Z,3.50
2024-01-25T07:50:58.379Z,5.05
2024-01-25T07:53:27.526Z,3.67
2024-01-25T07:55:55.522Z,4.07
2024-01-25T07:58:23.357Z,4.00
2024-01-25T08:00:52.277Z,4.90
2024-01-25T08:03:20.050Z,4.28
2024-01-25T08:05:51.270Z,3.80
2024-01-25T08:08:19.475Z,3.50
2024-01-25T08:10:48.489Z,3.95
2024-01-25T08:13:16.118Z,3.55
2024-01-25T08:15:43.920Z,3.72
2024-01-25T08:18:11.652Z,4.63
2024-01-25T08:20:40.459Z,3.78
2024-01-25T08:23:09.969Z,4.45
2024-01-25T08:25:37.760Z,4.38
2024-01-25T08:28:07.512Z,4.10
2024-01-25T08:30:35.329Z,5.80
2024-01-25T08:33:03.625Z,4.55
2024-01-25T08:35:32.602Z,4.35
2024-01-25T08:38:00.451Z,3.50
2024-01-25T08:40:30.522Z,4.22
2024-01-25T08:43:00.036Z,4.32
2024-01-25T08:45:28.985Z,3.95
2024-01-25T08:47:57.230Z,4.60
2024-01-25T08:50:27.519Z,4.85
2024-01-25T08:52:55.611Z,4.75
2024-01-25T08:55:23.650Z,5.10
2024-01-25T08:57:52.210Z,4.80
2024-01-25T09:00:20.228Z,6.63
2024-01-25T09:02:49.200Z,4.82
2024-01-25T09:05:17.458Z,4.82
2024-01-25T09:07:45.360Z,5.22
2024-01-25T09:10:13.292Z,4.70
2024-01-25T09:12:41.177Z,4.65
2024-01-25T09:15:09.882Z,4.50
2024-01-25T09:17:38.261Z,5.35
2024-01-25T09:20:09.209Z,5.05
2024-01-25T09:22:37.154Z,5.23
2024-01-25T09:25:06.394Z,4.78
2024-01-25T09:27:34.853Z,4.10
2024-01-25T09:30:02.677Z,4.90
2024-01-25T09:32:30.575Z,6.45
2024-01-25T09:34:58.682Z,5.15
2024-01-25T09:37:28.127Z,5.20
2024-01-25T09:39:56.629Z,5.13
2024-01-25T09:42:24.448Z,4.40
2024-01-25T09:44:54.439Z,4.50
2024-01-25T09:47:23.186Z,5.28
2024-01-25T09:49:51.173Z,3.72
2024-01-25T09:52:25.455Z,5.25
2024-01-25T09:54:56.121Z,5.57
2024-01-25T09:57:27.891Z,5.00
2024-01-25T09:59:56.803Z,5.93
2024-01-25T10:02:24.848Z,4.78
2024-01-25T10:04:54.309Z,6.32
2024-01-25T10:07:43.380Z,5.25
2024-01-25T10:10:13.419Z,5.20
2024-01-25T10:12:44.496Z,6.13
2024-01-25T10:15:12.713Z,5.72
2024-01-25T10:17:59.030Z,5.35
2024-01-25T10:20:31.601Z,5.82
2024-01-25T10:23:01.669Z,5.65
2024-01-25T10:25:31.285Z,5.25
2024-01-25T10:27:59.749Z,5.72
2024-01-25T10:30:27.519Z,5.38
2024-01-25T10:32:56.752Z,4.90
2024-01-25T10:35:25.698Z,5.40
2024-01-25T10:37:54.164Z,5.85
2024-01-25T10:40:22.753Z,5.63
2024-01-25T10:42:52.737Z,5.28
2024-01-25T10:45:21.116Z,5.55
2024-01-25T10:47:50.985Z,5.57
2024-01-25T10:50:19.390Z,5.38
2024-01-25T10:52:48.425Z,5.32
2024-01-25T10:55:17.636Z,4.93
2024-01-25T10:57:48.282Z,6.10
2024-01-25T11:00:18.494Z,5.50
2024-01-25T11:02:47.461Z,6.68
2024-01-25T11:05:16.573Z,5.50
2024-01-25T11:07:46.195Z,5.63
2024-01-25T11:10:16.995Z,6.75
2024-01-25T11:12:58.225Z,5.90
2024-01-25T11:15:34.194Z,5.17
2024-01-25T11:18:03.507Z,5.38
2024-01-25T11:20:32.596Z,5.97
2024-01-25T11:23:01.799Z,6.43
2024-01-25T11:25:30.351Z,6.05
2024-01-25T11:27:58.343Z,6.32
2024-01-25T11:30:27.849Z,6.63
2024-01-25T11:32:55.654Z,7.13
2024-01-25T11:35:26.425Z,5.95
2024-01-25T11:37:55.257Z,6.80
2024-01-25T11:40:23.070Z,6.88
2024-01-25T11:42:52.161Z,6.75
2024-01-25T11:45:20.202Z,6.15
2024-01-25T11:47:49.245Z,8.45
2024-01-25T11:50:17.214Z,7.03
2024-01-25T11:52:45.443Z,7.05
2024-01-25T11:55:13.470Z,6.80
2024-01-25T11:57:43.113Z,6.38
2024-01-25T12:00:15.602Z,6.97
2024-01-25T12:02:44.368Z,5.80
2024-01-25T12:05:14.766Z,6.82
2024-01-25T12:07:42.832Z,6.10
2024-01-25T12:10:17.279Z,6.32
2024-01-25T12:12:45.274Z,6.25
2024-01-25T12:15:13.532Z,6.43
2024-01-25T12:17:42.173Z,5.60
2024-01-25T12:20:13.670Z,7.90
2024-01-25T12:22:42.998Z,5.45
2024-01-25T12:25:13.796Z,5.47
2024-01-25T12:27:42.730Z,5.95
2024-01-25T12:30:11.402Z,5.15
2024-01-25T12:32:39.192Z,5.75
2024-01-25T12:35:07.958Z,5.30
2024-01-25T12:37:35.829Z,5.13
2024-01-25T12:40:05.754Z,4.88
2024-01-25T12:42:33.674Z,5.35
2024-01-25T12:45:01.405Z,4.57
2024-01-25T12:47:29.667Z,5.95
2024-01-25T12:49:57.653Z,5.60
2024-01-25T12:52:26.025Z,4.78
2024-01-25T12:54:53.824Z,4.90
2024-01-25T12:57:23.055Z,4.88
2024-01-25T12:59:50.960Z,4.93
2024-01-25T13:02:19.376Z,4.68
2024-01-25T13:04:47.152Z,5.15
2024-01-25T13:07:14.963Z,5.07
2024-01-25T13:09:42.633Z,5.00
2024-01-25T13:12:10.490Z,5.03
2024-01-25T13:14:39.852Z,4.75
2024-01-25T13:17:09.033Z,5.32
2024-01-25T13:19:36.834Z,5.20
2024-01-25T13:22:04.983Z,4.72
2024-01-25T13:24:32.675Z,5.15
2024-01-25T13:27:00.300Z,5.57
2024-01-25T13:29:27.898Z,4.88
2024-01-25T13:31:56.805Z,4.65
2024-01-25T13:34:24.592Z,5.13
2024-01-25T13:36:52.365Z,5.40
2024-01-25T13:39:20.047Z,4.60
2024-01-25T13:41:49.236Z,4.55
2024-01-25T13:44:17.005Z,4.50
2024-01-25T13:46:44.626Z,4.45
2024-01-25T13:49:13.733Z,4.45
2024-01-25T13:51:41.388Z,4.55
2024-01-25T13:54:09.133Z,4.75
2024-01-25T13:56:36.851Z,4.75
2024-01-25T13:59:04.501Z,4.13
2024-01-25T14:01:32.242Z,4.95
2024-01-25T14:04:00.161Z,5.38
2024-01-25T14:06:29.415Z,5.43
2024-01-25T14:08:57.164Z,5.07
2024-01-25T14:11:26.079Z,5.65
2024-01-25T14:13:53.915Z,4.85
2024-01-25T14:16:23.547Z,5.80
2024-01-25T14:18:52.482Z,7.60
2024-01-25T14:21:22.028Z,6.47
2024-01-25T14:23:51.609Z,6.88
2024-01-25T14:26:19.780Z,6.03
2024-01-25T14:28:47.542Z,6.20
2024-01-25T14:31:15.205Z,6.60
2024-01-25T14:33:46.294Z,6.38
2024-01-25T14:36:15.307Z,6.28
2024-01-25T14:38:43.451Z,6.28
2024-01-25T14:41:12.816Z,6.80
2024-01-25T14:43:40.676Z,6.50
2024-01-25T14:46:09.191Z,7.25
2024-01-25T14:48:36.988Z,7.20
2024-01-25T14:51:03.853Z,6.38
2024-01-25T14:53:31.499Z,6.20
2024-01-25T14:55:59.116Z,6.63
2024-01-25T14:58:28.445Z,6.05
2024-01-25T15:00:56.173Z,6.13
2024-01-25T15:03:24.079Z,5.53
2024-01-25T15:05:52.033Z,6.03
2024-01-25T15:08:19.990Z,6.15
2024-01-25T15:10:47.705Z,6.60
2024-01-25T15:13:15.454Z,5.53
2024-01-25T15:15:45.306Z,6.40
2024-01-25T15:18:13.315Z,6.10
2024-01-25T15:20:41.018Z,6.32
2024-01-25T15:23:09.955Z,6.55
2024-01-25T15:25:37.569Z,6.70
2024-01-25T15:28:05.695Z,5.68
2024-01-25T15:30:33.566Z,6.55
2024-01-25T15:33:03.343Z,7.03
2024-01-25T15:35:31.091Z,5.95
2024-01-25T15:37:58.693Z,6.82
2024-01-25T15:40:26.330Z,6.47
2024-01-25T15:42:56.295Z,6.18
2024-01-25T15:45:24.211Z,5.72
2024-01-25T15:47:52.034Z,5.53
2024-01-25T15:50:21.096Z,6.13
2024-01-25T15:52:49.200Z,6.72
2024-01-25T15:55:17.160Z,6.63
2024-01-25T15:57:44.858Z,5.40
2024-01-25T16:00:13.723Z,6.50
2024-01-25T16:02:41.482Z,5.47
2024-01-25T16:05:09.861Z,6.00
2024-01-25T16:07:43.469Z,5.88
2024-01-25T16:10:13.768Z,6.03
2024-01-25T16:12:41.458Z,6.00
2024-01-25T16:15:09.842Z,5.80
2024-01-25T16:17:37.586Z,6.80
2024-01-25T16:20:06.180Z,6.78
2024-01-25T16:22:33.908Z,6.15
2024-01-25T16:25:03.025Z,5.93
2024-01-25T16:27:30.732Z,6.22
2024-01-25T16:29:58.399Z,5.85
2024-01-25T16:32:26.004Z,6.00
2024-01-25T16:34:53.635Z,6.38
2024-01-25T16:37:21.270Z,5.80
2024-01-25T16:39:49.006Z,6.63
2024-01-25T16:42:17.997Z,6.15
2024-01-25T16:44:45.652Z,6.25
2024-01-25T16:47:13.344Z,5.57
2024-01-25T16:49:41.068Z,5.45
2024-01-25T16:52:08.929Z,5.82
2024-01-25T16:54:36.571Z,6.80
2024-01-25T16:57:04.366Z,5.90
2024-01-25T16:59:34.968Z,5.03
2024-01-25T17:02:04.083Z,5.57
2024-01-25T17:04:31.921Z,5.97
2024-01-25T17:06:59.841Z,5.45
2024-01-25T17:09:27.885Z,5.10
2024-01-25T17:11:55.629Z,5.68
2024-01-25T17:14:23.289Z,5.05
2024-01-25T17:16:52.287Z,5.53
2024-01-25T17:19:20.061Z,5.15
2024-01-25T17:21:47.835Z,5.45
2024-01-25T17:24:15.542Z,5.47
2024-01-25T17:26:43.925Z,5.25
2024-01-25T17:29:11.592Z,5.28
2024-01-25T17:31:39.156Z,5.63
2024-01-25T17:34:08.500Z,6.07
2024-01-25T17:36:36.267Z,5.38
2024-01-25T17:39:05.041Z,5.68
2024-01-25T17:41:32.612Z,5.30
2024-01-25T17:44:00.699Z,6.47
2024-01-25T17:46:28.388Z,6.18
2024-01-25T17:48:56.271Z,5.07
2024-01-25T17:51:25.364Z,5.78
2024-01-25T17:53:53.131Z,6.03
2024-01-25T17:56:20.826Z,6.28
2024-01-25T17:58:48.944Z,5.53
2024-01-25T18:01:16.861Z,5.93
2024-01-25T18:03:44.628Z,6.57
2024-01-25T18:06:12.320Z,5.80
2024-01-25T18:08:41.212Z,6.35
2024-01-25T18:11:09.681Z,6.63
2024-01-25T18:13:37.284Z,6.05
2024-01-25T18:16:05.589Z,7.40
2024-01-25T18:18:33.322Z,7.10
2024-01-25T18:21:00.996Z,6.90
2024-01-25T18:23:28.606Z,6.43
2024-01-25T18:25:59.757Z,6.30
2024-01-25T18:28:27.382Z,6.70
2024-01-25T18:30:55.031Z,7.25
2024-01-25T18:33:23.371Z,6.78
2024-01-25T18:35:51.497Z,6.60
2024-01-25T18:38:19.434Z,7.07
2024-01-25T18:40:47.156Z,6.15
2024-01-25T18:43:16.442Z,6.07
2024-01-25T18:45:44.397Z,6.97
2024-01-25T18:48:12.943Z,6.55
2024-01-25T18:50:40.739Z,7.18
2024-01-25T18:53:08.408Z,6.60
2024-01-25T18:55:37.369Z,7.30
2024-01-25T18:58:05.609Z,6.50
2024-01-25T19:00:35.424Z,6.28
2024-01-25T19:03:03.720Z,6.70
2024-01-25T19:05:32.117Z,6.60
2024-01-25T19:08:00.422Z,6.32
2024-01-25T19:10:28.028Z,6.15
2024-01-25T19:12:55.620Z,6.38
2024-01-25T19:15:23.428Z,5.85
2024-01-25T19:17:52.652Z,6.55
2024-01-25T19:20:20.623Z,6.13
2024-01-25T19:22:48.795Z,6.15
2024-01-25T19:25:16.674Z,6.35
2024-01-25T19:27:45.049Z,5.93
2024-01-25T19:30:16.570Z,6.57
2024-01-25T19:32:44.750Z,6.13
2024-01-25T19:35:13.966Z,7.22
2024-01-25T19:37:41.590Z,5.80
2024-01-25T19:40:10.127Z,5.93
2024-01-25T19:42:37.867Z,6.85
2024-01-25T19:45:06.426Z,5.47
2024-01-25T19:47:34.247Z,6.65
2024-01-25T19:50:01.923Z,6.25
2024-01-25T19:52:31.716Z,6.10
2024-01-25T19:54:59.584Z,5.80
2024-01-25T19:57:27.926Z,5.53
2024-01-25T19:59:55.950Z,6.20
2024-01-25T20:02:24.316Z,5.43
2024-01-25T20:04:52.609Z,5.53
2024-01-25T20:07:20.988Z,7.00
2024-01-25T20:09:50.097Z,6.85
2024-01-25T20:12:17.830Z,6.60
2024-01-25T20:14:46.752Z,6.32
2024-01-25T20:17:14.666Z,5.75
2024-01-25T20:19:42.372Z,5.80
2024-01-25T20:22:10.142Z,6.10
2024-01-25T20:24:37.780Z,6.38
2024-01-25T20:27:07.308Z,7.20
2024-01-25T20:29:34.947Z,7.68
2024-01-25T20:32:03.465Z,5.72
2024-01-25T20:34:33.187Z,6.80
2024-01-25T20:37:00.947Z,5.90
2024-01-25T20:39:28.666Z,6.05
2024-01-25T20:41:56.703Z,6.70
2024-01-25T20:44:25.724Z,7.53
2024-01-25T20:46:53.654Z,7.15
2024-01-25T20:49:21.571Z,6.15
2024-01-25T20:51:49.279Z,6.20
2024-01-25T20:54:17.077Z,6.00
2024-01-25T20:56:44.797Z,7.05
2024-01-25T20:59:12.360Z,7.13
2024-01-25T21:01:42.077Z,6.47
2024-01-25T21:04:10.650Z,6.70
2024-01-25T21:06:39.008Z,7.55
2024-01-25T21:09:08.299Z,7.50
2024-01-25T21:11:36.343Z,8.32
2024-01-25T21:14:04.656Z,7.47
2024-01-25T21:16:32.253Z,8.02
2024-01-25T21:19:01.654Z,6.35
2024-01-25T21:21:30.002Z,6.40
2024-01-25T21:23:57.704Z,7.40
2024-01-25T21:26:25.284Z,7.57
2024-01-25T21:28:52.950Z,8.45
2024-01-25T21:31:20.582Z,7.35
2024-01-25T21:33:49.162Z,8.23
2024-01-25T21:36:18.356Z,8.90
2024-01-25T21:38:45.976Z,7.18
2024-01-25T21:41:14.806Z,7.75
2024-01-25T21:43:42.564Z,7.50
2024-01-25T21:46:10.527Z,7.90
2024-01-25T21:48:38.331Z,7.95
2024-01-25T21:51:06.439Z,7.63
2024-01-25T21:53:35.578Z,9.32
2024-01-25T21:56:03.972Z,8.90
2024-01-25T21:58:31.705Z,8.68
2024-01-25T22:01:00.063Z,8.52
2024-01-25T22:03:29.158Z,9.32
2024-01-25T22:05:57.347Z,9.27
2024-01-25T22:08:25.193Z,8.48
2024-01-25T22:10:54.195Z,8.65
2024-01-25T22:13:21.839Z,10.13
2024-01-25T22:15:49.567Z,10.48
2024-01-25T22:18:17.286Z,9.95
2024-01-25T22:20:45.052Z,9.38
2024-01-25T22:23:12.665Z,9.77
2024-01-25T22:25:40.295Z,9.63
2024-01-25T22:28:09.223Z,8.98
2024-01-25T22:30:39.962Z,11.43
2024-01-25T22:33:07.718Z,9.50
2024-01-25T22:35:35.475Z,10.02
2024-01-25T22:38:03.924Z,10.43
2024-01-25T22:40:31.843Z,9.93
2024-01-25T22:42:59.569Z,10.05
2024-01-25T22:45:28.506Z,9.90
2024-01-25T22:47:56.160Z,10.20
2024-01-25T22:50:23.776Z,9.57
2024-01-25T22:52:51.391Z,9.43
2024-01-25T22:55:19.397Z,10.20
2024-01-25T22:57:47.303Z,10.15
2024-01-25T23:00:22.187Z,9.43
2024-01-25T23:02:51.622Z,9.38
2024-01-25T23:05:23.200Z,8.73
2024-01-25T23:07:51.319Z,9.52
2024-01-25T23:10:20.840Z,9.23
2024-01-25T23:12:49.147Z,8.43
2024-01-25T23:15:17.294Z,9.02
2024-01-25T23:17:45.530Z,9.77
2024-01-25T23:20:14.689Z,8.70
2024-01-25T23:22:42.444Z,8.68
2024-01-25T23:25:10.374Z,8.65
2024-01-25T23:27:38.599Z,9.38
2024-01-25T23:30:07.345Z,9.60
2024-01-25T23:32:35.878Z,8.55
2024-01-25T23:35:04.942Z,8.52
2024-01-25T23:37:35.533Z,8.77
2024-01-25T23:40:03.668Z,8.25
2024-01-25T23:42:31.881Z,8.10
2024-01-25T23:44:59.589Z,8.82
2024-01-25T23:47:27.484Z,9.07
2024-01-25T23:49:56.800Z,9.07
2024-01-25T23:52:24.539Z,9.82
2024-01-25T23:54:53.637Z,9.88
2024-01-25T23:57:21.772Z,9.43
2024-01-25T23:59:49.444Z,9.90
